Terminal Aerodrome Forecast
Issued by NWS

Home | Current Version | Previous Version | Text Only | Print | Product List | Glossary Off
Versions: 1 2 3 4 5 6 7 8 9 10 11 12 13 14 15 16 17

623
FTUS43 KTOP 112320
TAFFOE
TAF
KFOE 112320Z 1200/1224 16005KT P6SM SCT050 SCT120
     FM120800 35011KT P6SM SCT020 SCT040
     FM121500 35014G21KT P6SM SCT020=

USA.gov is the U.S. government's official web portal to all federal, state and local government web resources and services.